Time;durP1;ratioP1;P1;durP2;ratioP2;P2;SDS_P1;SDS_P2;PMS_P1;PMS_P2;Temp;Humidity;BMP_temperature;BMP_pressure;BME280_temperature;BME280_humidity;BME280_pressure;Samples;Min_cycle;Max_cycle;Signal;HPM_P1;HPM_P2
2021/04/05 00:01:17;;;;;;;70.13;26.45;;;;;;;;;;4968760;28;20035;-72
2021/04/05 00:03:43;;;;;;;65.55;24.52;;;;;;;;;;4966426;28;20031;-72
2021/04/05 00:06:09;;;;;;;70.53;23.80;;;;;;;;;;4967728;28;20118;-72
2021/04/05 00:08:35;;;;;;;70.75;23.85;;;;;;;;;;4968569;28;20066;-73
2021/04/05 00:11:01;;;;;;;51.38;20.00;;;;;;;;;;4966654;28;20084;-70
2021/04/05 00:13:29;;;;;;;53.08;17.95;;;;;;;;;;4966883;28;20031;-73
2021/04/05 00:15:56;;;;;;;56.22;21.38;;;;;;;;;;4968534;28;20599;-72
2021/04/05 00:18:23;;;;;;;62.00;20.02;;;;;;;;;;4969479;28;20043;-72
2021/04/05 00:20:54;;;;;;;52.65;18.52;;;;;;;;;;4971789;28;20038;-73
2021/04/05 00:23:20;;;;;;;61.08;20.52;;;;;;;;;;4971475;28;20023;-72
2021/04/05 00:25:47;;;;;;;64.03;19.02;;;;;;;;;;4969958;28;20496;-69
2021/04/05 00:28:13;;;;;;;52.83;16.08;;;;;;;;;;4966603;28;20090;-74
2021/04/05 00:30:39;;;;;;;66.55;20.67;;;;;;;;;;4967336;28;20047;-74
2021/04/05 00:33:06;;;;;;;66.93;18.80;;;;;;;;;;4964434;28;20650;-74
2021/04/05 00:35:34;;;;;;;61.83;18.02;;;;;;;;;;4988827;28;20027;-74
2021/04/05 00:38:00;;;;;;;61.05;16.45;;;;;;;;;;4990122;28;20034;-74
2021/04/05 00:40:31;;;;;;;69.50;17.30;;;;;;;;;;4992348;28;20485;-73
2021/04/05 00:42:57;;;;;;;54.45;12.73;;;;;;;;;;4990471;28;20500;-74
2021/04/05 00:45:23;;;;;;;45.20;15.85;;;;;;;;;;4990764;28;20018;-73
2021/04/05 00:47:50;;;;;;;48.15;15.27;;;;;;;;;;4989157;28;20033;-74
2021/04/05 00:50:26;;;;;;;53.20;15.32;;;;;;;;;;4990104;28;20026;-75
2021/04/05 00:52:53;;;;;;;48.03;12.60;;;;;;;;;;4973189;28;20420;-73
2021/04/05 00:55:20;;;;;;;55.63;13.60;;;;;;;;;;4986486;28;20473;-72
2021/04/05 00:57:46;;;;;;;62.95;17.23;;;;;;;;;;4979228;28;20585;-72
2021/04/05 01:00:17;;;;;;;58.78;14.65;;;;;;;;;;4993683;28;20026;-74
2021/04/05 01:02:44;;;;;;;53.10;13.48;;;;;;;;;;4993980;28;20031;-72
2021/04/05 01:05:10;;;;;;;50.13;15.20;;;;;;;;;;4993480;28;20252;-75
2021/04/05 01:07:37;;;;;;;50.92;13.85;;;;;;;;;;4990478;28;20511;-72
2021/04/05 01:10:06;;;;;;;54.45;12.68;;;;;;;;;;4991589;28;20446;-73
2021/04/05 01:12:32;;;;;;;43.15;14.52;;;;;;;;;;4989182;28;20033;-74
2021/04/05 01:14:58;;;;;;;36.50;12.27;;;;;;;;;;4994425;28;20041;-73
2021/04/05 01:17:24;;;;;;;59.00;16.17;;;;;;;;;;4992226;28;20022;-73
2021/04/05 01:19:50;;;;;;;53.60;16.27;;;;;;;;;;4975756;28;20457;-72
2021/04/05 01:22:16;;;;;;;62.08;16.50;;;;;;;;;;4993149;28;20050;-73
2021/04/05 01:24:42;;;;;;;32.03;10.80;;;;;;;;;;4994444;28;20149;-73
2021/04/05 01:27:08;;;;;;;56.95;16.35;;;;;;;;;;4992500;28;20114;-73
2021/04/05 01:29:36;;;;;;;54.50;17.17;;;;;;;;;;4993081;28;20038;-69
2021/04/05 01:32:02;;;;;;;43.55;13.48;;;;;;;;;;4993825;28;20046;-71
2021/04/05 01:34:28;;;;;;;48.55;14.85;;;;;;;;;;4991166;28;20022;-71
2021/04/05 01:36:58;;;;;;;55.17;16.23;;;;;;;;;;4992588;28;20078;-72
2021/04/05 01:39:25;;;;;;;48.22;16.90;;;;;;;;;;4993423;28;20069;-73
2021/04/05 01:41:51;;;;;;;63.60;17.98;;;;;;;;;;4993798;28;20034;-72
2021/04/05 01:44:17;;;;;;;51.00;15.95;;;;;;;;;;4991571;28;20023;-72
2021/04/05 01:46:43;;;;;;;45.92;15.13;;;;;;;;;;4993007;28;20028;-73
2021/04/05 01:49:10;;;;;;;53.20;17.70;;;;;;;;;;4992940;28;20018;-73
2021/04/05 01:51:36;;;;;;;58.45;18.10;;;;;;;;;;4976251;28;20035;-72
2021/04/05 01:54:02;;;;;;;52.72;17.35;;;;;;;;;;4992209;28;20022;-73
2021/04/05 01:56:28;;;;;;;54.63;18.25;;;;;;;;;;4990426;28;20030;-72
2021/04/05 01:58:54;;;;;;;43.67;15.95;;;;;;;;;;4990730;28;20042;-73
2021/04/05 02:01:25;;;;;;;47.10;16.23;;;;;;;;;;4991777;28;20035;-71
2021/04/05 02:03:52;;;;;;;56.05;20.08;;;;;;;;;;4988076;28;20034;-71
2021/04/05 02:06:18;;;;;;;45.85;16.20;;;;;;;;;;4976350;28;20041;-71
2021/04/05 02:08:45;;;;;;;55.15;18.23;;;;;;;;;;4991675;28;20026;-72
2021/04/05 02:11:13;;;;;;;59.55;18.13;;;;;;;;;;5003308;28;20026;-73
2021/04/05 02:13:39;;;;;;;60.20;17.23;;;;;;;;;;4984227;28;20034;-73
2021/04/05 02:16:05;;;;;;;60.15;18.48;;;;;;;;;;4989483;28;20034;-73
2021/04/05 02:18:31;;;;;;;52.70;17.70;;;;;;;;;;4990729;28;20054;-73
2021/04/05 02:20:58;;;;;;;57.58;17.60;;;;;;;;;;4993707;28;20035;-72
2021/04/05 02:23:25;;;;;;;53.13;18.77;;;;;;;;;;4980812;28;20105;-72
2021/04/05 02:26:07;;;;;;;61.90;18.98;;;;;;;;;;4992899;28;20484;-73
2021/04/05 02:28:33;;;;;;;45.33;17.80;;;;;;;;;;4985513;28;20026;-73
2021/04/05 02:30:59;;;;;;;42.75;17.00;;;;;;;;;;4999922;28;20423;-73
2021/04/05 02:33:26;;;;;;;57.78;18.45;;;;;;;;;;4998857;28;20504;-72
2021/04/05 02:35:52;;;;;;;47.53;17.70;;;;;;;;;;4992724;28;20030;-73
2021/04/05 02:38:18;;;;;;;56.30;19.05;;;;;;;;;;4990899;28;20076;-71
2021/04/05 02:40:44;;;;;;;52.95;17.30;;;;;;;;;;4993008;28;20531;-73
2021/04/05 02:43:11;;;;;;;60.90;19.63;;;;;;;;;;4992499;28;20431;-73
2021/04/05 02:45:37;;;;;;;47.88;17.63;;;;;;;;;;4992362;28;20101;-73
2021/04/05 02:48:04;;;;;;;44.85;17.73;;;;;;;;;;4991580;28;20026;-73
2021/04/05 02:50:32;;;;;;;46.53;17.10;;;;;;;;;;4991028;28;20038;-72
2021/04/05 02:52:59;;;;;;;42.45;17.50;;;;;;;;;;4992445;28;20022;-73
2021/04/05 02:55:25;;;;;;;52.83;18.48;;;;;;;;;;4972452;28;20034;-72
2021/04/05 02:57:52;;;;;;;51.53;18.77;;;;;;;;;;4991168;28;20038;-73
2021/04/05 03:00:19;;;;;;;48.00;18.05;;;;;;;;;;4983332;28;20085;-72
2021/04/05 03:02:48;;;;;;;39.40;16.60;;;;;;;;;;4985905;28;20059;-72
2021/04/05 03:05:17;;;;;;;41.30;16.42;;;;;;;;;;4991466;28;20026;-72
2021/04/05 03:07:43;;;;;;;42.03;17.20;;;;;;;;;;4974004;28;20035;-72
2021/04/05 03:10:10;;;;;;;46.95;17.90;;;;;;;;;;4988265;28;20026;-72
2021/04/05 03:12:38;;;;;;;35.58;16.08;;;;;;;;;;4992162;28;20033;-73
2021/04/05 03:15:05;;;;;;;39.20;16.88;;;;;;;;;;4987649;28;20021;-72
2021/04/05 03:17:32;;;;;;;36.30;15.38;;;;;;;;;;4990005;28;20026;-71
2021/04/05 03:19:59;;;;;;;35.28;15.57;;;;;;;;;;4987146;28;20492;-73
2021/04/05 03:22:25;;;;;;;38.83;16.15;;;;;;;;;;4991106;28;20499;-72
2021/04/05 03:24:51;;;;;;;43.55;14.77;;;;;;;;;;4968926;28;20039;-71
2021/04/05 03:27:17;;;;;;;36.38;15.05;;;;;;;;;;4990240;28;20030;-72
2021/04/05 03:29:44;;;;;;;30.45;13.45;;;;;;;;;;4991565;28;20089;-73
2021/04/05 03:32:13;;;;;;;31.75;13.57;;;;;;;;;;4990437;28;20105;-72
2021/04/05 03:34:39;;;;;;;36.65;15.27;;;;;;;;;;4988060;28;20054;-73
2021/04/05 03:37:08;;;;;;;34.28;15.88;;;;;;;;;;4981080;28;20034;-72
2021/04/05 03:39:35;;;;;;;29.73;13.98;;;;;;;;;;4991242;28;20041;-73
2021/04/05 03:42:01;;;;;;;34.22;13.85;;;;;;;;;;4991823;28;20034;-71
2021/04/05 03:44:45;;;;;;;36.75;14.88;;;;;;;;;;4982736;28;20035;-72
2021/04/05 03:47:23;;;;;;;42.40;14.45;;;;;;;;;;4970669;28;21147;-72
2021/04/05 03:49:52;;;;;;;27.88;12.05;;;;;;;;;;4991611;28;20030;-72
2021/04/05 03:52:19;;;;;;;35.33;14.35;;;;;;;;;;4987792;28;20027;-72
2021/04/05 03:54:50;;;;;;;34.90;12.25;;;;;;;;;;4974203;28;20030;-71
2021/04/05 03:57:18;;;;;;;29.20;12.53;;;;;;;;;;4989932;28;20113;-72
2021/04/05 03:59:47;;;;;;;34.55;14.05;;;;;;;;;;4989898;28;20026;-72
2021/04/05 04:02:20;;;;;;;28.35;9.40;;;;;;;;;;4980732;28;20041;-71
2021/04/05 04:04:58;;;;;;;31.50;13.40;;;;;;;;;;4988238;28;20025;-72
2021/04/05 04:07:31;;;;;;;34.65;13.68;;;;;;;;;;4978175;28;20125;-72
2021/04/05 04:09:58;;;;;;;27.85;13.13;;;;;;;;;;4989992;28;20018;-71
2021/04/05 04:12:25;;;;;;;28.63;12.77;;;;;;;;;;4987408;28;20029;-71
2021/04/05 04:14:51;;;;;;;31.15;13.52;;;;;;;;;;4989679;28;20034;-71
2021/04/05 04:17:18;;;;;;;29.80;13.65;;;;;;;;;;4983850;28;20049;-72
2021/04/05 04:19:45;;;;;;;29.42;13.50;;;;;;;;;;4989352;28;20022;-72
2021/04/05 04:22:12;;;;;;;36.75;15.93;;;;;;;;;;4988606;28;20029;-72
2021/04/05 04:24:39;;;;;;;33.60;14.63;;;;;;;;;;4973011;28;20018;-73
2021/04/05 04:27:05;;;;;;;27.88;13.55;;;;;;;;;;4982825;28;20034;-73
2021/04/05 04:29:31;;;;;;;43.47;16.27;;;;;;;;;;4990784;28;20492;-73
2021/04/05 04:31:57;;;;;;;37.70;15.43;;;;;;;;;;4986645;28;20101;-72
2021/04/05 04:34:24;;;;;;;38.40;13.77;;;;;;;;;;4988573;28;20032;-72
2021/04/05 04:36:51;;;;;;;40.50;18.50;;;;;;;;;;4987891;28;20113;-72
2021/04/05 04:39:18;;;;;;;37.60;17.60;;;;;;;;;;4990549;28;20109;-73
2021/04/05 04:41:45;;;;;;;44.55;16.30;;;;;;;;;;4985265;28;20034;-72
2021/04/05 04:44:12;;;;;;;40.65;17.88;;;;;;;;;;4990956;28;20011;-73
2021/04/05 04:46:39;;;;;;;37.72;15.57;;;;;;;;;;4976424;28;20034;-74
2021/04/05 04:49:06;;;;;;;38.53;15.60;;;;;;;;;;4990436;28;20033;-73
2021/04/05 04:51:33;;;;;;;42.03;15.15;;;;;;;;;;4974021;28;20073;-73
2021/04/05 04:53:59;;;;;;;40.67;16.15;;;;;;;;;;4990267;28;20030;-73
2021/04/05 04:56:26;;;;;;;36.22;15.88;;;;;;;;;;4989155;28;20030;-74
2021/04/05 04:58:52;;;;;;;42.92;15.02;;;;;;;;;;4989639;28;20038;-73
2021/04/05 05:01:18;;;;;;;28.00;13.52;;;;;;;;;;4990389;28;20031;-72
2021/04/05 05:03:51;;;;;;;42.88;15.48;;;;;;;;;;4975623;28;20019;-74
2021/04/05 05:06:17;;;;;;;39.90;16.63;;;;;;;;;;4989966;28;20098;-73
2021/04/05 05:08:43;;;;;;;40.40;15.82;;;;;;;;;;4988549;28;20027;-72
2021/04/05 05:11:10;;;;;;;43.30;16.33;;;;;;;;;;4991451;28;20030;-73
2021/04/05 05:13:36;;;;;;;38.78;15.00;;;;;;;;;;4991037;28;20019;-73
2021/04/05 05:16:05;;;;;;;36.47;14.95;;;;;;;;;;4972872;28;20030;-72
2021/04/05 05:18:31;;;;;;;40.30;14.68;;;;;;;;;;4988458;28;20034;-73
2021/04/05 05:20:57;;;;;;;35.33;13.80;;;;;;;;;;4990887;28;20039;-71
2021/04/05 05:23:23;;;;;;;26.10;13.07;;;;;;;;;;4989150;28;21704;-72
2021/04/05 05:25:49;;;;;;;31.48;13.45;;;;;;;;;;4990271;28;20442;-74
2021/04/05 05:28:17;;;;;;;40.38;12.82;;;;;;;;;;4987687;28;20022;-71
2021/04/05 05:30:43;;;;;;;34.58;11.95;;;;;;;;;;4989955;28;20125;-77
2021/04/05 05:33:09;;;;;;;22.33;9.95;;;;;;;;;;4975759;28;20034;-75
2021/04/05 05:35:36;;;;;;;27.20;8.85;;;;;;;;;;4990653;28;20034;-76
2021/04/05 05:38:03;;;;;;;11.85;3.72;;;;;;;;;;4989153;28;20031;-73
2021/04/05 05:40:30;;;;;;;27.83;4.80;;;;;;;;;;4988993;28;20042;-71
2021/04/05 05:43:15;;;;;;;25.48;4.75;;;;;;;;;;4991425;28;20026;-71
2021/04/05 05:45:43;;;;;;;27.33;4.97;;;;;;;;;;4994242;28;20037;-72
2021/04/05 05:48:15;;;;;;;26.40;4.85;;;;;;;;;;4992113;28;20018;-73
2021/04/05 05:50:50;;;;;;;35.65;5.97;;;;;;;;;;4994230;28;20057;-72
2021/04/05 05:53:19;;;;;;;28.33;4.82;;;;;;;;;;4993524;28;20030;-72
2021/04/05 05:55:55;;;;;;;40.10;5.72;;;;;;;;;;4991400;28;20118;-72
2021/04/05 05:58:37;;;;;;;30.73;5.72;;;;;;;;;;4991096;28;20033;-73
2021/04/05 06:01:11;;;;;;;37.22;6.47;;;;;;;;;;4975170;28;20089;-71
2021/04/05 06:03:54;;;;;;;35.42;6.38;;;;;;;;;;4990176;28;20026;-71
2021/04/05 06:06:21;;;;;;;30.58;5.28;;;;;;;;;;4988358;28;20456;-71
2021/04/05 06:09:06;;;;;;;31.27;5.47;;;;;;;;;;4991714;28;20037;-70
2021/04/05 06:11:51;;;;;;;34.22;5.43;;;;;;;;;;4992970;28;20030;-72
2021/04/05 06:14:33;;;;;;;30.67;6.22;;;;;;;;;;4992901;28;20037;-70
2021/04/05 06:17:14;;;;;;;24.83;4.78;;;;;;;;;;4982362;28;20030;-71
2021/04/05 06:19:52;;;;;;;24.77;5.57;;;;;;;;;;4991242;28;20034;-72
2021/04/05 06:22:27;;;;;;;31.50;5.18;;;;;;;;;;4995733;28;20500;-71
2021/04/05 06:25:23;;;;;;;27.08;4.05;;;;;;;;;;4992984;28;20109;-72
2021/04/05 06:27:48;;;;;;;19.85;3.70;;;;;;;;;;4927928;28;20044;-71
2021/04/05 06:30:27;;;;;;;27.75;4.72;;;;;;;;;;4995167;28;20022;-71
2021/04/05 06:33:13;;;;;;;21.02;3.75;;;;;;;;;;4994828;28;20034;-73
2021/04/05 06:35:48;;;;;;;18.67;2.65;;;;;;;;;;4992757;28;20026;-74
2021/04/05 06:38:21;;;;;;;22.73;4.65;;;;;;;;;;4992471;28;20393;-72
2021/04/05 06:40:48;;;;;;;21.30;3.13;;;;;;;;;;4990374;28;20053;-73
2021/04/05 06:43:20;;;;;;;25.85;4.30;;;;;;;;;;4976232;28;20037;-76
2021/04/05 06:45:52;;;;;;;13.43;3.42;;;;;;;;;;4998629;28;20077;-72
2021/04/05 06:48:31;;;;;;;9.48;1.65;;;;;;;;;;4990580;28;20026;-71
2021/04/05 06:50:57;;;;;;;15.45;2.03;;;;;;;;;;4991332;28;20045;-71
2021/04/05 06:53:42;;;;;;;17.30;2.92;;;;;;;;;;4990692;28;20034;-74
2021/04/05 06:56:11;;;;;;;23.52;2.42;;;;;;;;;;4991133;28;20730;-76
2021/04/05 06:58:41;;;;;;;20.77;2.45;;;;;;;;;;4989214;28;20030;-75
2021/04/05 07:01:10;;;;;;;20.75;3.65;;;;;;;;;;4991562;28;20022;-73
2021/04/05 07:03:55;;;;;;;19.73;3.50;;;;;;;;;;4998311;28;20061;-74
2021/04/05 07:06:21;;;;;;;31.38;4.63;;;;;;;;;;4993800;28;20401;-75
2021/04/05 07:08:54;;;;;;;28.15;4.20;;;;;;;;;;4992316;28;20137;-73
2021/04/05 07:11:20;;;;;;;25.77;3.83;;;;;;;;;;4990078;28;20030;-71
2021/04/05 07:13:55;;;;;;;37.90;5.18;;;;;;;;;;4971595;28;20035;-72
2021/04/05 07:16:30;;;;;;;26.23;4.07;;;;;;;;;;4969784;28;20108;-74
2021/04/05 07:19:15;;;;;;;30.80;3.95;;;;;;;;;;4990668;28;20117;-70
2021/04/05 07:21:44;;;;;;;40.10;5.63;;;;;;;;;;4991923;28;20066;-73
2021/04/05 07:24:10;;;;;;;32.65;5.75;;;;;;;;;;4976362;28;20096;-73
2021/04/05 07:26:47;;;;;;;29.15;5.72;;;;;;;;;;4982174;28;20050;-74
2021/04/05 07:29:20;;;;;;;37.35;6.70;;;;;;;;;;4991563;28;20102;-74
2021/04/05 07:31:46;;;;;;;33.10;4.40;;;;;;;;;;4991375;28;20053;-72
2021/04/05 07:34:23;;;;;;;43.65;5.80;;;;;;;;;;4991230;28;20030;-74
2021/04/05 07:36:50;;;;;;;34.45;5.43;;;;;;;;;;4990420;28;20038;-75
2021/04/05 07:39:20;;;;;;;33.08;5.30;;;;;;;;;;4991135;28;20026;-75
2021/04/05 07:41:49;;;;;;;25.98;5.03;;;;;;;;;;4991388;28;20030;-72
2021/04/05 07:44:34;;;;;;;21.42;4.60;;;;;;;;;;4991673;28;20515;-75
2021/04/05 07:47:07;;;;;;;42.53;4.45;;;;;;;;;;4990014;28;20113;-73
2021/04/05 07:49:36;;;;;;;25.08;4.75;;;;;;;;;;4987805;28;20030;-72
2021/04/05 07:52:04;;;;;;;29.35;5.22;;;;;;;;;;4989489;28;20026;-71
2021/04/05 07:54:34;;;;;;;35.38;6.22;;;;;;;;;;4991585;28;20440;-72
2021/04/05 07:57:07;;;;;;;48.50;6.03;;;;;;;;;;4988966;28;20022;-73
2021/04/05 07:59:52;;;;;;;36.47;5.53;;;;;;;;;;4987899;28;20101;-71
2021/04/05 08:02:36;;;;;;;30.80;5.22;;;;;;;;;;4989501;28;20060;-72
2021/04/05 08:05:16;;;;;;;25.73;6.20;;;;;;;;;;4987105;28;20111;-70
2021/04/05 08:07:42;;;;;;;26.67;4.70;;;;;;;;;;4988417;28;20033;-73
2021/04/05 08:10:19;;;;;;;21.45;4.45;;;;;;;;;;4992008;28;20031;-68
2021/04/05 08:12:51;;;;;;;26.73;5.15;;;;;;;;;;4989487;28;20088;-70
2021/04/05 08:15:20;;;;;;;32.78;4.70;;;;;;;;;;4988906;28;20170;-70
2021/04/05 08:17:54;;;;;;;25.48;6.20;;;;;;;;;;4968431;28;20030;-73
2021/04/05 08:20:24;;;;;;;19.85;3.78;;;;;;;;;;4987861;28;20500;-72
2021/04/05 08:22:54;;;;;;;19.45;4.53;;;;;;;;;;4990421;28;20161;-70
2021/04/05 08:25:48;;;;;;;32.00;4.68;;;;;;;;;;4987622;28;20026;-72
2021/04/05 08:28:29;;;;;;;27.42;4.38;;;;;;;;;;4988608;28;20057;-72
2021/04/05 08:31:13;;;;;;;24.48;4.05;;;;;;;;;;4988247;28;20045;-71
2021/04/05 08:33:42;;;;;;;27.45;3.85;;;;;;;;;;4988549;28;20042;-70
2021/04/05 08:36:28;;;;;;;21.15;3.22;;;;;;;;;;4988926;28;20029;-72
2021/04/05 08:39:02;;;;;;;24.27;3.80;;;;;;;;;;4988723;28;20030;-69
2021/04/05 08:41:37;;;;;;;19.30;4.18;;;;;;;;;;4988320;28;20061;-70
2021/04/05 08:44:25;;;;;;;17.85;3.95;;;;;;;;;;4990652;28;20030;-69
2021/04/05 08:46:55;;;;;;;24.35;4.05;;;;;;;;;;4989525;28;20022;-73
2021/04/05 08:49:21;;;;;;;28.60;4.10;;;;;;;;;;4990016;28;20053;-70
2021/04/05 08:51:51;;;;;;;17.67;3.85;;;;;;;;;;4991396;28;20084;-72
2021/04/05 08:54:20;;;;;;;29.00;4.95;;;;;;;;;;4983159;28;20030;-70
2021/04/05 08:56:50;;;;;;;25.90;4.32;;;;;;;;;;4989334;28;20034;-70
2021/04/05 08:59:25;;;;;;;21.25;3.35;;;;;;;;;;4991075;28;20022;-74
2021/04/05 09:02:00;;;;;;;22.95;5.22;;;;;;;;;;4984247;28;20385;-70
2021/04/05 09:04:28;;;;;;;19.25;2.63;;;;;;;;;;4982352;28;20023;-72
2021/04/05 09:07:05;;;;;;;20.08;3.40;;;;;;;;;;4990041;28;20439;-70
2021/04/05 09:09:34;;;;;;;15.98;2.40;;;;;;;;;;4971726;28;20106;-71
2021/04/05 09:12:01;;;;;;;20.08;3.88;;;;;;;;;;4989333;28;20018;-70
2021/04/05 09:14:29;;;;;;;16.05;3.42;;;;;;;;;;4991191;28;20033;-70
2021/04/05 09:17:14;;;;;;;18.20;2.95;;;;;;;;;;4989377;28;20046;-68
2021/04/05 09:19:59;;;;;;;17.38;3.38;;;;;;;;;;4989622;28;20039;-71
2021/04/05 09:22:43;;;;;;;20.73;3.35;;;;;;;;;;4994759;28;20027;-68
2021/04/05 09:25:10;;;;;;;19.42;4.60;;;;;;;;;;4998259;28;20539;-68
2021/04/05 09:27:54;;;;;;;23.02;3.88;;;;;;;;;;4994322;28;20034;-68
2021/04/05 09:30:33;;;;;;;23.52;3.47;;;;;;;;;;4983573;28;20060;-69
2021/04/05 09:33:05;;;;;;;27.08;4.32;;;;;;;;;;5002772;28;20034;-68
2021/04/05 09:35:31;;;;;;;;;;;;;;;;;;4976691;28;20027;-68
2021/04/05 09:38:08;;;;;;;28.30;4.63;;;;;;;;;;4990981;28;19918;-68
2021/04/05 09:40:49;;;;;;;33.15;4.90;;;;;;;;;;4993906;28;20381;-67
2021/04/05 09:43:34;;;;;;;27.10;5.00;;;;;;;;;;4995573;28;20081;-67
2021/04/05 09:46:30;;;;;;;21.40;4.15;;;;;;;;;;4998988;28;20114;-68
2021/04/05 09:49:08;;;;;;;31.08;5.13;;;;;;;;;;4994442;28;20049;-67
2021/04/05 09:51:50;;;;;;;32.08;4.63;;;;;;;;;;4991225;28;20370;-69
2021/04/05 09:54:21;;;;;;;23.73;3.58;;;;;;;;;;4990405;28;20504;-70
2021/04/05 09:56:53;;;;;;;18.95;3.90;;;;;;;;;;4986573;28;20041;-69
2021/04/05 09:59:20;;;;;;;35.60;4.32;;;;;;;;;;4992309;28;20100;-69
2021/04/05 10:01:53;;;;;;;30.65;5.20;;;;;;;;;;4991225;28;20101;-68
2021/04/05 10:04:23;;;;;;;22.60;4.47;;;;;;;;;;4991391;28;20392;-68
2021/04/05 10:06:51;;;;;;;19.40;3.88;;;;;;;;;;4990141;28;20039;-68
2021/04/05 10:09:20;;;;;;;35.35;4.03;;;;;;;;;;4991802;28;20026;-69
2021/04/05 10:11:47;;;;;;;17.85;3.40;;;;;;;;;;4992510;28;20034;-69
2021/04/05 10:14:15;;;;;;;23.15;4.35;;;;;;;;;;4975614;28;20091;-69
2021/04/05 10:16:44;;;;;;;22.25;5.00;;;;;;;;;;4989234;28;20026;-68
2021/04/05 10:19:12;;;;;;;14.05;3.40;;;;;;;;;;4986644;28;20027;-68
2021/04/05 10:21:42;;;;;;;18.48;3.20;;;;;;;;;;4993193;28;20038;-67
2021/04/05 10:24:10;;;;;;;24.63;3.95;;;;;;;;;;4990997;28;20544;-68
2021/04/05 10:26:39;;;;;;;21.63;3.90;;;;;;;;;;4988643;28;20398;-68
2021/04/05 10:29:09;;;;;;;17.70;3.80;;;;;;;;;;4993194;28;20073;-69
2021/04/05 10:31:36;;;;;;;15.93;3.40;;;;;;;;;;4992693;28;20046;-68
2021/04/05 10:34:05;;;;;;;31.00;3.25;;;;;;;;;;4991273;28;20022;-69
2021/04/05 10:36:38;;;;;;;15.50;2.60;;;;;;;;;;4982265;28;20050;-70
2021/04/05 10:39:04;;;;;;;21.20;2.97;;;;;;;;;;4994301;28;20025;-68
2021/04/05 10:41:30;;;;;;;18.98;4.78;;;;;;;;;;4992191;28;20039;-69
2021/04/05 10:43:58;;;;;;;24.92;3.33;;;;;;;;;;4991027;28;20105;-68
2021/04/05 10:46:42;;;;;;;26.42;3.45;;;;;;;;;;4988094;28;20026;-67
2021/04/05 10:49:09;;;;;;;24.10;4.45;;;;;;;;;;4992689;28;20128;-68
2021/04/05 10:51:38;;;;;;;20.67;2.97;;;;;;;;;;4989580;28;20030;-68
2021/04/05 10:54:07;;;;;;;13.60;2.10;;;;;;;;;;4992147;28;20029;-68
2021/04/05 10:56:36;;;;;;;13.40;2.38;;;;;;;;;;4988291;28;20018;-68
2021/04/05 10:59:10;;;;;;;15.05;2.08;;;;;;;;;;5000847;28;20099;-68
2021/04/05 11:01:49;;;;;;;20.45;2.92;;;;;;;;;;4989258;28;20034;-71
2021/04/05 11:04:16;;;;;;;20.25;3.22;;;;;;;;;;4985891;28;20570;-68
2021/04/05 11:06:43;;;;;;;28.88;3.60;;;;;;;;;;4971009;28;20247;-69
2021/04/05 11:09:10;;;;;;;25.30;3.92;;;;;;;;;;4990684;28;20030;-69
2021/04/05 11:11:39;;;;;;;30.98;3.80;;;;;;;;;;4990258;28;20512;-69
2021/04/05 11:14:08;;;;;;;36.72;4.07;;;;;;;;;;4991522;28;20041;-71
2021/04/05 11:16:34;;;;;;;21.92;3.95;;;;;;;;;;4989408;28;20478;-70
2021/04/05 11:19:07;;;;;;;19.63;2.95;;;;;;;;;;4989172;28;20037;-69
2021/04/05 11:21:49;;;;;;;14.88;2.38;;;;;;;;;;4985477;28;20184;-70
2021/04/05 11:24:15;;;;;;;;;;;;;;;;;;4981819;28;20030;-69
2021/04/05 11:26:43;;;;;;;12.10;3.63;;;;;;;;;;4981067;28;20449;-69
2021/04/05 11:29:13;;;;;;;16.95;2.75;;;;;;;;;;4981883;28;20026;-69
2021/04/05 11:31:43;;;;;;;11.23;1.58;;;;;;;;;;4979213;28;20090;-69
2021/04/05 11:34:09;;;;;;;17.85;3.17;;;;;;;;;;4978712;28;21249;-68
2021/04/05 11:36:40;;;;;;;17.95;3.03;;;;;;;;;;4973945;28;20048;-70
2021/04/05 11:39:10;;;;;;;10.77;2.17;;;;;;;;;;4975765;28;20029;-71
2021/04/05 11:41:37;;;;;;;14.05;2.25;;;;;;;;;;4973016;28;21449;-70
2021/04/05 11:44:03;;;;;;;19.75;2.88;;;;;;;;;;4974090;28;20198;-71
2021/04/05 11:46:40;;;;;;;13.88;1.90;;;;;;;;;;4970064;28;21371;-68
2021/04/05 11:49:06;;;;;;;9.95;1.38;;;;;;;;;;4981291;28;20088;-69
2021/04/05 11:51:38;;;;;;;13.80;2.65;;;;;;;;;;4987751;28;20042;-69
2021/04/05 11:54:05;;;;;;;15.52;2.55;;;;;;;;;;4990354;28;20062;-70
2021/04/05 11:56:33;;;;;;;15.00;2.63;;;;;;;;;;4986672;28;20053;-70
2021/04/05 11:59:09;;;;;;;10.00;2.53;;;;;;;;;;4988368;28;20096;-69
2021/04/05 12:01:42;;;;;;;16.85;2.42;;;;;;;;;;4984117;28;20505;-70
2021/04/05 12:04:09;;;;;;;15.90;2.03;;;;;;;;;;4990438;28;20515;-69
2021/04/05 12:06:39;;;;;;;10.43;1.92;;;;;;;;;;4986638;28;20034;-69
2021/04/05 12:09:08;;;;;;;10.07;1.75;;;;;;;;;;4989789;28;20026;-68
2021/04/05 12:11:41;;;;;;;23.73;3.38;;;;;;;;;;4988464;28;20058;-69
2021/04/05 12:14:10;;;;;;;18.70;2.92;;;;;;;;;;4970200;28;20397;-69
2021/04/05 12:16:38;;;;;;;21.75;2.97;;;;;;;;;;4984453;28;20524;-70
2021/04/05 12:19:04;;;;;;;25.67;3.88;;;;;;;;;;4989564;28;20077;-68
2021/04/05 12:21:31;;;;;;;17.95;3.35;;;;;;;;;;4989505;28;20104;-69
2021/04/05 12:23:59;;;;;;;17.90;3.03;;;;;;;;;;4989911;28;20089;-68
2021/04/05 12:26:26;;;;;;;21.63;4.00;;;;;;;;;;4988140;28;20022;-69
2021/04/05 12:28:53;;;;;;;15.90;2.70;;;;;;;;;;4989135;28;20011;-68
2021/04/05 12:31:23;;;;;;;19.70;2.90;;;;;;;;;;4988435;28;20057;-68
2021/04/05 12:33:51;;;;;;;19.40;2.67;;;;;;;;;;4990671;28;20038;-67
2021/04/05 12:36:17;;;;;;;13.43;2.30;;;;;;;;;;4987944;28;20106;-69
2021/04/05 12:38:46;;;;;;;21.10;3.22;;;;;;;;;;4977433;28;20026;-69
2021/04/05 12:41:13;;;;;;;34.38;5.47;;;;;;;;;;4990377;28;20388;-68
2021/04/05 12:43:40;;;;;;;26.88;3.92;;;;;;;;;;4989769;28;20026;-69
2021/04/05 12:46:14;;;;;;;18.20;2.40;;;;;;;;;;4988897;28;20488;-69
2021/04/05 12:48:41;;;;;;;19.25;2.20;;;;;;;;;;4986701;28;20081;-68
2021/04/05 12:51:08;;;;;;;12.73;1.75;;;;;;;;;;4980678;28;20030;-69
2021/04/05 12:53:39;;;;;;;20.23;3.30;;;;;;;;;;4992033;28;20132;-69
2021/04/05 12:56:05;;;;;;;15.20;3.25;;;;;;;;;;4988999;28;20085;-68
2021/04/05 12:58:36;;;;;;;27.80;2.95;;;;;;;;;;4990512;28;20038;-68
2021/04/05 13:01:03;;;;;;;16.73;2.45;;;;;;;;;;4993044;28;20050;-68
2021/04/05 13:03:33;;;;;;;20.30;2.53;;;;;;;;;;4976842;28;20046;-69
2021/04/05 13:06:08;;;;;;;22.98;3.40;;;;;;;;;;4991271;28;20037;-69
2021/04/05 13:08:54;;;;;;;16.83;5.15;;;;;;;;;;4991074;28;20301;-70
2021/04/05 13:11:28;;;;;;;18.02;2.33;;;;;;;;;;4971904;28;20042;-69
2021/04/05 13:14:05;;;;;;;17.55;2.60;;;;;;;;;;4993928;28;20033;-68
2021/04/05 13:16:33;;;;;;;18.92;2.20;;;;;;;;;;4987774;28;20139;-68
2021/04/05 13:19:04;;;;;;;15.07;2.63;;;;;;;;;;4991246;28;20036;-69
2021/04/05 13:21:38;;;;;;;16.13;3.72;;;;;;;;;;4991699;28;20066;-68
2021/04/05 13:24:06;;;;;;;7.05;1.50;;;;;;;;;;4991781;28;20695;-67
2021/04/05 13:26:39;;;;;;;21.90;2.97;;;;;;;;;;4989726;28;20029;-68
2021/04/05 13:29:06;;;;;;;9.82;2.35;;;;;;;;;;4968112;28;20045;-68
2021/04/05 13:31:32;;;;;;;16.67;2.33;;;;;;;;;;4990682;28;20104;-68
2021/04/05 13:34:01;;;;;;;16.60;2.50;;;;;;;;;;4994000;28;20034;-71
2021/04/05 13:36:27;;;;;;;11.60;2.30;;;;;;;;;;4973939;28;20062;-69
2021/04/05 13:39:03;;;;;;;12.35;1.95;;;;;;;;;;4982875;28;20485;-69
2021/04/05 13:41:33;;;;;;;14.90;3.60;;;;;;;;;;4990109;28;20136;-68
2021/04/05 13:44:00;;;;;;;17.45;3.47;;;;;;;;;;4993583;28;20307;-69
2021/04/05 13:46:27;;;;;;;15.35;4.10;;;;;;;;;;4972730;28;20030;-68
2021/04/05 13:48:59;;;;;;;23.63;2.90;;;;;;;;;;4973389;28;20038;-67
2021/04/05 13:51:25;;;;;;;;;;;;;;;;;;4990271;28;20042;-68
2021/04/05 13:53:54;;;;;;;15.88;2.58;;;;;;;;;;4991789;28;19945;-69
2021/04/05 13:56:24;;;;;;;19.13;2.45;;;;;;;;;;4998065;28;20038;-68
2021/04/05 13:58:52;;;;;;;19.05;3.55;;;;;;;;;;4992102;28;20160;-69
2021/04/05 14:01:20;;;;;;;14.63;1.83;;;;;;;;;;4973965;28;20031;-71
2021/04/05 14:03:51;;;;;;;20.17;2.55;;;;;;;;;;4992051;28;20030;-68
2021/04/05 14:06:22;;;;;;;11.80;2.37;;;;;;;;;;4991289;28;20014;-67
2021/04/05 14:08:50;;;;;;;14.93;2.20;;;;;;;;;;4985872;28;20500;-69
2021/04/05 14:11:21;;;;;;;18.60;2.97;;;;;;;;;;4990345;28;20030;-70
2021/04/05 14:13:52;;;;;;;24.90;3.50;;;;;;;;;;4990463;28;20035;-70
2021/04/05 14:16:24;;;;;;;18.67;1.40;;;;;;;;;;4991099;28;20046;-70
2021/04/05 14:19:00;;;;;;;17.65;2.35;;;;;;;;;;4972573;28;20031;-69
2021/04/05 14:21:26;;;;;;;16.23;3.50;;;;;;;;;;4990178;28;20081;-70
2021/04/05 14:24:01;;;;;;;22.55;5.95;;;;;;;;;;4987856;28;20022;-69
2021/04/05 14:26:28;;;;;;;20.10;3.30;;;;;;;;;;4989322;28;20093;-68
2021/04/05 14:28:57;;;;;;;27.40;3.80;;;;;;;;;;4988196;28;20020;-68
2021/04/05 14:31:32;;;;;;;24.65;2.92;;;;;;;;;;4994015;28;20068;-69
2021/04/05 14:34:00;;;;;;;21.70;3.20;;;;;;;;;;4991788;28;20401;-70
2021/04/05 14:36:28;;;;;;;8.73;2.53;;;;;;;;;;4984437;28;20027;-72
2021/04/05 14:39:22;;;;;;;22.65;3.25;;;;;;;;;;4991992;28;20083;-70
2021/04/05 14:41:53;;;;;;;25.73;3.42;;;;;;;;;;4976284;28;20074;-71
2021/04/05 14:44:19;;;;;;;16.65;3.53;;;;;;;;;;4973284;28;20085;-70